createdAt,value
2019-03-26T00:01:06.808Z,1.40
2019-03-26T00:03:35.317Z,1.50
2019-03-26T00:06:03.864Z,1.40
2019-03-26T00:08:32.323Z,1.40
2019-03-26T00:11:00.815Z,1.40
2019-03-26T00:13:29.265Z,1.50
2019-03-26T00:15:57.761Z,1.50
2019-03-26T00:18:26.208Z,1.50
2019-03-26T00:20:54.655Z,1.50
2019-03-26T00:23:23.165Z,1.40
2019-03-26T00:25:51.602Z,1.50
2019-03-26T00:28:20.041Z,1.40
2019-03-26T00:30:48.484Z,1.40
2019-03-26T00:33:16.921Z,1.40
2019-03-26T00:35:45.370Z,1.40
2019-03-26T00:38:13.818Z,1.40
2019-03-26T00:40:42.258Z,1.40
2019-03-26T00:43:10.709Z,1.30
2019-03-26T00:45:39.154Z,1.30
2019-03-26T00:48:07.604Z,1.30
2019-03-26T00:50:36.152Z,1.30
2019-03-26T00:53:04.666Z,1.40
2019-03-26T00:55:33.114Z,1.30
2019-03-26T00:58:01.919Z,1.40
2019-03-26T01:00:38.297Z,1.30
2019-03-26T01:03:06.835Z,1.30
2019-03-26T01:05:35.312Z,1.30
2019-03-26T01:08:03.813Z,1.30
2019-03-26T01:10:32.270Z,1.30
2019-03-26T01:13:00.713Z,1.30
2019-03-26T01:15:29.210Z,1.30
2019-03-26T01:17:57.827Z,1.30
2019-03-26T01:20:26.426Z,1.20
2019-03-26T01:22:54.943Z,1.30
2019-03-26T01:25:23.402Z,1.30
2019-03-26T01:27:51.842Z,1.30
2019-03-26T01:30:20.326Z,1.30
2019-03-26T01:32:48.780Z,1.20
2019-03-26T01:35:17.259Z,1.20
2019-03-26T01:37:45.717Z,1.20
2019-03-26T01:40:14.187Z,1.20
2019-03-26T01:42:42.697Z,1.20
2019-03-26T01:45:11.391Z,1.20
2019-03-26T01:47:39.863Z,1.20
2019-03-26T01:50:08.402Z,1.20
2019-03-26T01:52:36.932Z,1.20
2019-03-26T01:55:06.857Z,1.20
2019-03-26T01:57:35.322Z,1.20
2019-03-26T02:00:05.439Z,1.20
2019-03-26T02:02:34.012Z,1.30
2019-03-26T02:05:02.658Z,1.20
2019-03-26T02:07:31.187Z,1.30
2019-03-26T02:09:59.660Z,1.30
2019-03-26T02:12:28.141Z,1.20
2019-03-26T02:14:56.671Z,1.30
2019-03-26T02:17:25.111Z,1.30
2019-03-26T02:19:53.537Z,1.20
2019-03-26T02:22:21.996Z,1.20
2019-03-26T02:24:50.441Z,1.20
2019-03-26T02:27:18.897Z,1.20
2019-03-26T02:29:47.341Z,1.20
2019-03-26T02:32:15.803Z,1.20
2019-03-26T02:34:44.316Z,1.20
2019-03-26T02:37:12.781Z,1.20
2019-03-26T02:39:41.263Z,1.20
2019-03-26T02:42:10.623Z,1.20
2019-03-26T02:44:39.145Z,1.20
2019-03-26T02:47:07.673Z,1.20
2019-03-26T02:49:36.253Z,1.10
2019-03-26T02:52:04.884Z,1.10
2019-03-26T02:54:33.507Z,1.20
2019-03-26T02:57:02.051Z,1.10
2019-03-26T02:59:30.639Z,1.20
2019-03-26T03:01:59.420Z,1.10
2019-03-26T03:04:28.088Z,1.10
2019-03-26T03:06:56.675Z,1.10
2019-03-26T03:09:25.312Z,1.10
2019-03-26T03:11:54.019Z,1.10
2019-03-26T03:14:22.609Z,1.20
2019-03-26T03:16:51.235Z,1.10
2019-03-26T03:19:19.900Z,1.10
2019-03-26T03:21:48.561Z,1.10
2019-03-26T03:24:17.145Z,1.10
2019-03-26T03:26:45.741Z,1.10
2019-03-26T03:29:14.351Z,1.10
2019-03-26T03:31:42.855Z,1.20
2019-03-26T03:34:11.492Z,1.10
2019-03-26T03:36:40.036Z,1.20
2019-03-26T03:39:08.820Z,1.20
2019-03-26T03:41:37.515Z,1.10
2019-03-26T03:44:06.042Z,1.10
2019-03-26T03:46:34.688Z,1.10
2019-03-26T03:49:03.533Z,1.10
2019-03-26T03:51:33.754Z,1.00
2019-03-26T03:54:02.471Z,1.00
2019-03-26T03:56:31.988Z,1.00
2019-03-26T03:59:01.694Z,1.00
2019-03-26T04:01:30.259Z,0.90
2019-03-26T04:03:58.896Z,0.90
2019-03-26T04:06:27.468Z,0.90
2019-03-26T04:08:56.084Z,0.90
2019-03-26T04:11:24.734Z,0.90
2019-03-26T04:13:53.376Z,0.90
2019-03-26T04:16:21.941Z,0.90
2019-03-26T04:18:50.557Z,0.90
2019-03-26T04:21:19.178Z,0.90
2019-03-26T04:23:47.820Z,0.90
2019-03-26T04:26:16.368Z,0.90
2019-03-26T04:28:44.944Z,0.90
2019-03-26T04:31:13.761Z,0.90
2019-03-26T04:33:42.276Z,0.90
2019-03-26T04:36:24.494Z,0.90
2019-03-26T04:38:41.013Z,0.90
2019-03-26T04:41:09.520Z,0.90
2019-03-26T04:43:38.080Z,0.90
2019-03-26T04:46:06.761Z,0.90
2019-03-26T04:48:35.390Z,0.90
2019-03-26T04:51:04.077Z,0.80
2019-03-26T04:53:34.214Z,0.80
2019-03-26T04:56:02.879Z,0.80
2019-03-26T04:58:31.359Z,0.80
2019-03-26T05:00:59.908Z,0.80
2019-03-26T05:03:29.397Z,0.70
2019-03-26T05:05:57.995Z,0.70
2019-03-26T05:08:26.503Z,0.70
2019-03-26T05:10:54.999Z,0.70
2019-03-26T05:13:23.548Z,0.70
2019-03-26T05:15:52.063Z,0.60
2019-03-26T05:18:20.599Z,0.60
2019-03-26T05:20:49.120Z,0.60
2019-03-26T05:23:17.809Z,0.60
2019-03-26T05:25:46.351Z,0.60
2019-03-26T05:28:14.903Z,0.60
2019-03-26T05:30:43.417Z,0.50
2019-03-26T05:33:12.083Z,0.50
2019-03-26T05:35:41.539Z,0.50
2019-03-26T05:38:10.076Z,0.60
2019-03-26T05:40:38.617Z,0.50
2019-03-26T05:43:07.332Z,0.60
2019-03-26T05:45:35.883Z,0.60
2019-03-26T05:48:04.571Z,0.60
2019-03-26T05:50:33.195Z,0.60
2019-03-26T05:53:01.772Z,0.60
2019-03-26T05:55:30.332Z,0.60
2019-03-26T05:57:58.902Z,0.60
2019-03-26T06:00:27.868Z,0.60
2019-03-26T06:02:56.451Z,0.60
2019-03-26T06:05:25.127Z,0.60
2019-03-26T06:07:53.693Z,0.60
2019-03-26T06:10:22.365Z,0.60
2019-03-26T06:12:50.868Z,0.60
2019-03-26T06:15:19.499Z,0.60
2019-03-26T06:17:48.203Z,0.60
2019-03-26T06:20:17.609Z,0.70
2019-03-26T06:22:46.183Z,0.70
2019-03-26T06:25:14.780Z,0.70
2019-03-26T06:27:43.475Z,0.70
2019-03-26T06:30:12.700Z,0.80
2019-03-26T06:32:41.292Z,0.80
2019-03-26T06:35:10.116Z,0.70
2019-03-26T06:37:38.681Z,0.70
2019-03-26T06:40:09.563Z,0.70
2019-03-26T06:42:38.199Z,0.70
2019-03-26T06:45:08.316Z,0.80
2019-03-26T06:47:36.930Z,0.80
2019-03-26T06:50:08.530Z,0.80
2019-03-26T06:52:37.170Z,0.90
2019-03-26T06:55:07.780Z,0.90
2019-03-26T06:57:37.098Z,1.00
2019-03-26T07:00:07.884Z,0.90
2019-03-26T07:02:36.560Z,0.90
2019-03-26T07:05:06.208Z,0.80
2019-03-26T07:07:34.923Z,0.80
2019-03-26T07:10:05.320Z,0.80
2019-03-26T07:12:33.874Z,0.80
2019-03-26T07:15:02.458Z,0.80
2019-03-26T07:17:31.286Z,0.80
2019-03-26T07:19:59.952Z,0.70
2019-03-26T07:22:28.627Z,0.80
2019-03-26T07:24:57.724Z,0.80
2019-03-26T07:27:26.358Z,0.80
2019-03-26T07:29:54.937Z,0.80
2019-03-26T07:32:23.566Z,0.90
2019-03-26T07:34:52.097Z,0.80
2019-03-26T07:37:20.893Z,0.80
2019-03-26T07:39:49.444Z,0.80
2019-03-26T07:42:18.191Z,0.80
2019-03-26T07:44:46.991Z,0.70
2019-03-26T07:47:15.560Z,0.70
2019-03-26T07:49:44.106Z,0.70
2019-03-26T07:52:15.498Z,0.70
2019-03-26T07:54:43.110Z,0.90
2019-03-26T07:57:11.814Z,1.00
2019-03-26T07:59:40.719Z,1.00
2019-03-26T08:02:09.507Z,0.90
2019-03-26T08:04:38.394Z,0.90
2019-03-26T08:07:06.889Z,1.00
2019-03-26T08:09:35.502Z,1.10
2019-03-26T08:12:04.112Z,1.10
2019-03-26T08:14:32.715Z,1.10
2019-03-26T08:17:01.633Z,1.10
2019-03-26T08:19:30.564Z,1.10
2019-03-26T08:21:59.076Z,1.20
2019-03-26T08:24:27.668Z,1.20
2019-03-26T08:26:56.178Z,1.20
2019-03-26T08:29:24.679Z,1.20
2019-03-26T08:31:53.233Z,1.20
2019-03-26T08:34:21.733Z,1.20
2019-03-26T08:36:50.301Z,1.10
2019-03-26T08:39:18.945Z,1.20
2019-03-26T08:41:47.481Z,1.20
2019-03-26T08:44:16.095Z,1.40
2019-03-26T08:46:46.316Z,1.60
2019-03-26T08:49:15.315Z,1.90
2019-03-26T08:51:43.826Z,2.00
2019-03-26T08:54:12.354Z,2.20
2019-03-26T08:56:40.980Z,2.30
2019-03-26T08:59:09.591Z,2.40
2019-03-26T09:01:38.299Z,2.50
2019-03-26T09:04:06.766Z,2.60
2019-03-26T09:06:35.269Z,2.60
2019-03-26T09:09:06.014Z,2.60
2019-03-26T09:11:34.472Z,2.70
2019-03-26T09:14:03.128Z,2.70
2019-03-26T09:16:31.704Z,2.70
2019-03-26T09:19:00.384Z,2.80
2019-03-26T09:21:34.675Z,2.90
2019-03-26T09:24:03.196Z,2.90
2019-03-26T09:26:31.702Z,3.00
2019-03-26T09:29:01.189Z,3.00
2019-03-26T09:31:29.759Z,2.80
2019-03-26T09:33:59.315Z,2.50
2019-03-26T09:36:28.110Z,2.60
2019-03-26T09:38:56.864Z,2.60
2019-03-26T09:41:26.995Z,2.80
2019-03-26T09:43:55.644Z,2.90
2019-03-26T09:46:24.299Z,3.00
2019-03-26T09:48:59.023Z,3.20
2019-03-26T09:51:27.813Z,3.40
2019-03-26T09:53:56.404Z,3.50
2019-03-26T09:56:32.049Z,3.70
2019-03-26T09:58:59.198Z,3.60
2019-03-26T10:01:27.705Z,3.80
2019-03-26T10:03:56.576Z,4.00
2019-03-26T10:06:25.453Z,3.90
2019-03-26T10:08:54.405Z,3.70
2019-03-26T10:11:32.112Z,3.60
2019-03-26T10:14:00.653Z,3.40
2019-03-26T10:16:29.716Z,3.60
2019-03-26T10:18:58.325Z,3.80
2019-03-26T10:21:26.955Z,4.10
2019-03-26T10:23:55.681Z,4.30
2019-03-26T10:26:24.462Z,4.20
2019-03-26T10:28:53.319Z,4.20
2019-03-26T10:31:23.864Z,4.50
2019-03-26T10:33:52.442Z,4.80
2019-03-26T10:36:21.119Z,4.80
2019-03-26T10:38:49.606Z,4.80
2019-03-26T10:41:18.785Z,4.60
2019-03-26T10:43:47.644Z,4.40
2019-03-26T10:46:24.067Z,4.10
2019-03-26T10:48:52.629Z,3.90
2019-03-26T10:51:21.241Z,4.00
2019-03-26T10:53:49.787Z,4.00
2019-03-26T10:56:19.107Z,4.00
2019-03-26T10:58:47.583Z,4.10
2019-03-26T11:01:16.152Z,4.00
2019-03-26T11:03:44.679Z,3.80
2019-03-26T11:06:13.359Z,3.80
2019-03-26T11:08:44.961Z,3.70
2019-03-26T11:11:12.207Z,3.80
2019-03-26T11:13:40.795Z,3.70
2019-03-26T11:16:09.399Z,3.70
2019-03-26T11:18:37.991Z,3.80
2019-03-26T11:21:06.572Z,3.80
2019-03-26T11:23:35.344Z,3.90
2019-03-26T11:26:03.937Z,4.10
2019-03-26T11:28:32.512Z,4.40
2019-03-26T11:31:02.886Z,4.60
2019-03-26T11:33:31.594Z,4.60
2019-03-26T11:36:00.160Z,4.70
2019-03-26T11:38:28.838Z,4.80
2019-03-26T11:40:57.634Z,4.80
2019-03-26T11:43:27.379Z,4.70
2019-03-26T11:45:56.199Z,4.60
2019-03-26T11:48:25.094Z,4.40
2019-03-26T11:50:53.799Z,4.40
2019-03-26T11:53:22.561Z,4.70
2019-03-26T11:55:51.198Z,5.00
2019-03-26T11:58:29.985Z,5.10
2019-03-26T12:00:50.066Z,4.90
2019-03-26T12:03:18.758Z,4.70
2019-03-26T12:05:48.350Z,4.70
2019-03-26T12:08:16.803Z,4.70
2019-03-26T12:10:45.392Z,4.60
2019-03-26T12:13:21.664Z,4.30
2019-03-26T12:15:51.060Z,4.20
2019-03-26T12:18:19.711Z,4.10
2019-03-26T12:20:48.423Z,3.70
2019-03-26T12:23:17.007Z,3.70
2019-03-26T12:25:45.628Z,3.70
2019-03-26T12:28:14.315Z,3.80
2019-03-26T12:30:42.924Z,4.00
2019-03-26T12:33:11.716Z,4.10
2019-03-26T12:35:40.554Z,4.20
2019-03-26T12:38:18.985Z,4.40
2019-03-26T12:40:51.255Z,4.40
2019-03-26T12:43:19.951Z,4.50
2019-03-26T12:45:48.712Z,4.60
2019-03-26T12:48:17.270Z,4.60
2019-03-26T12:50:45.767Z,4.70
2019-03-26T12:53:14.260Z,4.50
2019-03-26T12:55:42.837Z,4.40
2019-03-26T12:58:11.334Z,4.30
2019-03-26T13:00:47.634Z,4.40
2019-03-26T13:03:16.285Z,4.40
2019-03-26T13:05:45.012Z,4.90
2019-03-26T13:08:13.749Z,5.10
2019-03-26T13:10:52.755Z,4.90
2019-03-26T13:13:12.903Z,4.80
2019-03-26T13:15:41.563Z,4.70
2019-03-26T13:18:11.288Z,4.50
2019-03-26T13:20:40.063Z,4.40
2019-03-26T13:23:08.663Z,4.40
2019-03-26T13:25:37.343Z,4.40
2019-03-26T13:28:06.001Z,4.50
2019-03-26T13:30:34.488Z,4.80
2019-03-26T13:33:07.617Z,5.10
2019-03-26T13:35:36.179Z,5.30
2019-03-26T13:38:07.917Z,5.20
2019-03-26T13:40:36.417Z,5.10
2019-03-26T13:43:05.842Z,4.60
2019-03-26T13:45:34.392Z,4.40
2019-03-26T13:48:02.977Z,4.10
2019-03-26T13:50:31.527Z,3.90
2019-03-26T13:53:00.120Z,3.80
2019-03-26T13:55:28.659Z,3.80
2019-03-26T13:57:57.178Z,3.70
2019-03-26T14:00:33.340Z,3.50
2019-03-26T14:03:01.911Z,3.50
2019-03-26T14:05:30.735Z,3.50
2019-03-26T14:07:59.367Z,3.50
2019-03-26T14:10:40.166Z,3.50
2019-03-26T14:12:58.217Z,3.50
2019-03-26T14:15:26.891Z,3.40
2019-03-26T14:17:55.756Z,3.40
2019-03-26T14:20:24.253Z,3.30
2019-03-26T14:23:06.784Z,3.20
2019-03-26T14:25:35.427Z,3.20
2019-03-26T14:28:03.944Z,3.10
2019-03-26T14:30:56.031Z,3.10
2019-03-26T14:33:24.576Z,3.00
2019-03-26T14:35:53.077Z,2.90
2019-03-26T14:38:21.565Z,2.80
2019-03-26T14:40:55.158Z,2.70
2019-03-26T14:43:21.162Z,2.70
2019-03-26T14:45:49.597Z,2.70
2019-03-26T14:48:18.231Z,2.70
2019-03-26T14:50:46.725Z,2.80
2019-03-26T14:53:15.146Z,2.80
2019-03-26T14:55:43.593Z,2.70
2019-03-26T14:58:12.039Z,2.80
2019-03-26T15:00:40.548Z,2.80
2019-03-26T15:03:08.971Z,2.80
2019-03-26T15:05:37.432Z,2.80
2019-03-26T15:08:05.925Z,2.80
2019-03-26T15:10:34.485Z,2.90
2019-03-26T15:13:02.900Z,3.00
2019-03-26T15:15:31.339Z,3.00
2019-03-26T15:17:59.777Z,3.00
2019-03-26T15:20:28.222Z,3.00
2019-03-26T15:22:58.091Z,3.00
2019-03-26T15:25:26.775Z,3.00
2019-03-26T15:27:55.209Z,3.00
2019-03-26T15:30:23.649Z,3.00
2019-03-26T15:32:53.065Z,3.00
2019-03-26T15:35:21.566Z,3.00
2019-03-26T15:37:50.008Z,3.10
2019-03-26T15:40:18.603Z,3.10
2019-03-26T15:42:47.053Z,3.10
2019-03-26T15:45:15.955Z,3.10
2019-03-26T15:47:44.404Z,3.10
2019-03-26T15:50:13.588Z,3.10
2019-03-26T15:52:42.382Z,3.10
2019-03-26T15:55:11.822Z,3.20
2019-03-26T15:57:40.258Z,3.20
2019-03-26T16:00:09.135Z,3.20
2019-03-26T16:02:37.596Z,3.20
2019-03-26T16:05:08.269Z,3.10
2019-03-26T16:07:37.542Z,3.10
2019-03-26T16:10:08.315Z,3.10
2019-03-26T16:12:41.282Z,3.10
2019-03-26T16:15:07.464Z,3.10
2019-03-26T16:17:35.903Z,3.00
2019-03-26T16:20:05.772Z,3.00
2019-03-26T16:22:34.206Z,3.00
2019-03-26T16:25:02.658Z,2.90
2019-03-26T16:27:31.365Z,2.90
2019-03-26T16:29:59.859Z,2.90
2019-03-26T16:32:28.282Z,2.90
2019-03-26T16:34:56.727Z,2.90
2019-03-26T16:37:25.415Z,2.80
2019-03-26T16:39:53.859Z,2.80
2019-03-26T16:42:22.294Z,2.70
2019-03-26T16:44:50.756Z,2.70
2019-03-26T16:47:19.195Z,2.70
2019-03-26T16:49:47.711Z,2.70
2019-03-26T16:52:16.154Z,2.70
2019-03-26T16:54:44.602Z,2.70
2019-03-26T16:57:13.034Z,2.80
2019-03-26T16:59:41.739Z,2.80
2019-03-26T17:02:10.168Z,2.80
2019-03-26T17:04:38.624Z,2.70
2019-03-26T17:07:07.053Z,2.70
2019-03-26T17:09:35.498Z,2.70
2019-03-26T17:12:04.016Z,2.70
2019-03-26T17:14:32.528Z,2.70
2019-03-26T17:17:01.029Z,2.70
2019-03-26T17:19:32.473Z,2.80
2019-03-26T17:21:59.633Z,2.80
2019-03-26T17:24:28.075Z,2.80
2019-03-26T17:26:56.524Z,2.80
2019-03-26T17:29:24.980Z,2.80
2019-03-26T17:31:53.429Z,2.80
2019-03-26T17:34:21.876Z,2.80
2019-03-26T17:36:50.313Z,2.80
2019-03-26T17:39:18.776Z,2.80
2019-03-26T17:41:47.196Z,2.80
2019-03-26T17:44:15.646Z,2.90
2019-03-26T17:46:44.094Z,2.90
2019-03-26T17:49:12.553Z,2.90
2019-03-26T17:51:41.225Z,2.80
2019-03-26T17:54:10.303Z,2.80
2019-03-26T17:56:38.734Z,2.80
2019-03-26T17:59:07.184Z,2.80
2019-03-26T18:01:35.619Z,2.80
2019-03-26T18:04:04.216Z,2.80
2019-03-26T18:06:32.663Z,2.90
2019-03-26T18:09:01.125Z,2.90
2019-03-26T18:11:29.561Z,2.90
2019-03-26T18:13:58.004Z,2.90
2019-03-26T18:16:26.505Z,2.90
2019-03-26T18:18:55.127Z,2.90
2019-03-26T18:21:23.889Z,2.90
2019-03-26T18:23:52.427Z,2.80
2019-03-26T18:26:20.858Z,2.80
2019-03-26T18:28:49.799Z,2.90
2019-03-26T18:31:18.551Z,2.90
2019-03-26T18:33:47.010Z,2.90
2019-03-26T18:36:15.472Z,2.80
2019-03-26T18:38:43.935Z,2.80
2019-03-26T18:41:12.370Z,2.80
2019-03-26T18:43:40.989Z,2.80
2019-03-26T18:46:09.475Z,2.80
2019-03-26T18:48:40.156Z,2.80
2019-03-26T18:51:08.212Z,2.80
2019-03-26T18:53:36.669Z,2.80
2019-03-26T18:56:05.113Z,2.80
2019-03-26T18:58:33.579Z,2.80
2019-03-26T19:01:02.017Z,2.80
2019-03-26T19:03:30.552Z,2.80
2019-03-26T19:05:58.996Z,2.90
2019-03-26T19:08:27.449Z,2.80
2019-03-26T19:10:55.894Z,2.80
2019-03-26T19:13:24.359Z,2.90
2019-03-26T19:15:52.806Z,2.90
2019-03-26T19:18:21.251Z,2.90
2019-03-26T19:21:01.463Z,2.90
2019-03-26T19:23:19.881Z,2.90
2019-03-26T19:25:48.335Z,3.00
2019-03-26T19:28:16.778Z,3.00
2019-03-26T19:30:45.261Z,2.90
2019-03-26T19:33:13.718Z,2.90
2019-03-26T19:35:42.184Z,2.90
2019-03-26T19:38:10.629Z,2.90
2019-03-26T19:40:39.589Z,2.90
2019-03-26T19:43:11.389Z,2.90
2019-03-26T19:45:38.191Z,2.90
2019-03-26T19:48:07.515Z,2.80
2019-03-26T19:50:35.974Z,2.90
2019-03-26T19:53:04.422Z,2.90
2019-03-26T19:55:32.874Z,2.90
2019-03-26T19:58:01.314Z,2.90
2019-03-26T20:00:29.810Z,2.90
2019-03-26T20:02:58.256Z,2.80
2019-03-26T20:05:26.718Z,2.80
2019-03-26T20:07:55.162Z,2.90
2019-03-26T20:10:23.803Z,2.90
2019-03-26T20:12:52.419Z,2.90
2019-03-26T20:15:21.522Z,2.90
2019-03-26T20:17:49.970Z,2.90
2019-03-26T20:20:19.254Z,2.90
2019-03-26T20:22:47.790Z,2.90
2019-03-26T20:25:16.226Z,2.90
2019-03-26T20:27:44.694Z,2.90
2019-03-26T20:30:13.866Z,3.00
2019-03-26T20:32:42.319Z,3.00
2019-03-26T20:35:11.082Z,2.90
2019-03-26T20:37:39.543Z,2.90
2019-03-26T20:40:09.521Z,2.90
2019-03-26T20:42:38.528Z,2.90
2019-03-26T20:45:09.831Z,2.90
2019-03-26T20:47:38.456Z,2.90
2019-03-26T20:50:07.645Z,2.90
2019-03-26T20:52:36.193Z,2.90
2019-03-26T20:55:06.542Z,2.90
2019-03-26T20:57:34.999Z,2.90
2019-03-26T21:00:05.173Z,2.90
2019-03-26T21:02:33.609Z,2.90
2019-03-26T21:05:02.047Z,2.80
2019-03-26T21:07:30.503Z,2.80
2019-03-26T21:09:58.950Z,2.90
2019-03-26T21:12:27.385Z,2.90
2019-03-26T21:14:55.832Z,2.90
2019-03-26T21:17:24.269Z,2.90
2019-03-26T21:19:52.723Z,2.90
2019-03-26T21:22:21.176Z,2.90
2019-03-26T21:24:49.618Z,2.90
2019-03-26T21:27:18.077Z,2.90
2019-03-26T21:29:46.517Z,2.90
2019-03-26T21:32:14.944Z,2.80
2019-03-26T21:34:43.521Z,2.80
2019-03-26T21:37:12.007Z,2.80
2019-03-26T21:39:40.440Z,2.80
2019-03-26T21:42:08.899Z,2.80
2019-03-26T21:44:37.365Z,2.80
2019-03-26T21:47:05.794Z,2.80
2019-03-26T21:49:34.231Z,2.90
2019-03-26T21:52:03.224Z,2.90
2019-03-26T21:54:31.677Z,2.90
2019-03-26T21:57:00.154Z,2.90
2019-03-26T21:59:28.583Z,2.90
2019-03-26T22:01:57.019Z,2.90
2019-03-26T22:04:25.478Z,2.90
2019-03-26T22:06:53.931Z,2.90
2019-03-26T22:09:22.434Z,2.90
2019-03-26T22:11:50.868Z,2.80
2019-03-26T22:14:19.327Z,2.80
2019-03-26T22:16:47.784Z,2.90
2019-03-26T22:19:27.959Z,2.90
2019-03-26T22:21:47.069Z,2.80
2019-03-26T22:24:17.125Z,2.90
2019-03-26T22:26:45.870Z,2.90
2019-03-26T22:29:14.324Z,2.90
2019-03-26T22:31:42.774Z,2.90
2019-03-26T22:34:11.224Z,2.90
2019-03-26T22:36:39.694Z,2.90
2019-03-26T22:39:08.272Z,2.80
2019-03-26T22:41:36.698Z,2.80
2019-03-26T22:44:05.155Z,2.90
2019-03-26T22:46:33.577Z,2.90
2019-03-26T22:49:02.013Z,2.80
2019-03-26T22:51:30.460Z,2.80
2019-03-26T22:53:58.897Z,2.90
2019-03-26T22:56:27.334Z,2.80
2019-03-26T22:58:55.837Z,2.80
2019-03-26T23:01:24.343Z,2.80
2019-03-26T23:03:52.783Z,2.90
2019-03-26T23:06:21.218Z,2.90
2019-03-26T23:08:49.656Z,2.80
2019-03-26T23:11:18.093Z,2.80
2019-03-26T23:13:46.602Z,2.80
2019-03-26T23:16:15.037Z,2.90
2019-03-26T23:18:43.477Z,2.90
2019-03-26T23:21:11.977Z,2.80
2019-03-26T23:23:40.482Z,2.90
2019-03-26T23:26:08.910Z,2.80
2019-03-26T23:28:37.371Z,2.80
2019-03-26T23:31:05.876Z,2.70
2019-03-26T23:33:34.308Z,2.80
2019-03-26T23:36:02.734Z,2.80
2019-03-26T23:38:31.186Z,2.80
2019-03-26T23:40:59.682Z,2.80
2019-03-26T23:43:28.132Z,2.80
2019-03-26T23:45:56.571Z,2.80
2019-03-26T23:48:25.039Z,2.80
2019-03-26T23:50:53.555Z,2.80
2019-03-26T23:53:21.998Z,2.80
2019-03-26T23:55:50.441Z,2.80
2019-03-26T23:58:18.894Z,2.80
